Time;durP1;ratioP1;P1;durP2;ratioP2;P2;SDS_P1;SDS_P2;PMS_P1;PMS_P2;Temp;Humidity;BMP_temperature;BMP_pressure;BME280_temperature;BME280_humidity;BME280_pressure;Samples;Min_cycle;Max_cycle;Signal;HPM_P1;HPM_P2
2022/10/12 00:01:08;;;;;;;3.70;1.85;;;6.40;99.90;;;;;;4880833;29;20413;-84
2022/10/12 00:03:35;;;;;;;6.70;3.20;;;6.10;99.90;;;;;;4896243;29;20044;-84
2022/10/12 00:06:02;;;;;;;15.10;6.20;;;6.20;99.90;;;;;;4880608;29;20051;-84
2022/10/12 00:08:29;;;;;;;16.20;5.47;;;5.90;99.90;;;;;;4880249;29;20377;-84
2022/10/12 00:10:55;;;;;;;10.25;4.18;;;6.10;99.90;;;;;;4895810;29;20135;-84
2022/10/12 00:13:20;;;;;;;11.43;3.67;;;5.90;99.90;;;;;;4881031;29;20130;-85
2022/10/12 00:15:46;;;;;;;14.00;4.30;;;6.00;99.90;;;;;;4894904;29;20048;-83
2022/10/12 00:18:12;;;;;;;12.75;3.78;;;5.90;99.90;;;;;;4896861;29;20070;-83
2022/10/12 00:20:38;;;;;;;10.25;4.22;;;6.40;99.90;;;;;;4896124;29;20522;-84
2022/10/12 00:23:03;;;;;;;8.25;4.55;;;5.90;99.90;;;;;;4895367;29;20457;-84
2022/10/12 00:25:29;;;;;;;8.25;3.60;;;6.00;99.90;;;;;;4880610;29;20044;-84
2022/10/12 00:27:55;;;;;;;9.05;3.33;;;6.00;99.90;;;;;;4896001;29;20056;-84
2022/10/12 00:30:21;;;;;;;8.57;3.22;;;6.00;99.90;;;;;;4879646;29;20079;-83
2022/10/12 00:32:46;;;;;;;5.00;2.30;;;5.90;99.90;;;;;;4896382;29;20048;-83
2022/10/12 00:35:12;;;;;;;7.63;2.35;;;6.00;99.90;;;;;;4895005;29;20044;-84
2022/10/12 00:37:38;;;;;;;4.70;2.00;;;5.90;99.90;;;;;;4895374;29;20115;-84
2022/10/12 00:40:04;;;;;;;11.18;3.03;;;6.10;99.90;;;;;;4879945;29;20048;-84
2022/10/12 00:42:29;;;;;;;9.13;2.60;;;5.80;99.90;;;;;;4880518;29;20087;-84
2022/10/12 00:44:55;;;;;;;10.15;3.25;;;5.80;99.90;;;;;;4895070;29;20075;-84
2022/10/12 00:47:29;;;;;;;9.23;3.30;;;6.20;99.90;;;;;;4889498;29;20048;-84
2022/10/12 00:49:58;;;;;;;9.15;3.00;;;5.70;99.90;;;;;;4895282;29;20059;-84
2022/10/12 00:52:30;;;;;;;8.80;3.10;;;5.80;99.90;;;;;;4879567;29;20056;-84
2022/10/12 00:54:56;;;;;;;13.65;3.83;;;5.70;99.90;;;;;;4895105;29;20130;-85
2022/10/12 00:57:22;;;;;;;8.38;2.70;;;5.80;99.90;;;;;;4880107;29;20469;-84
2022/10/12 00:59:55;;;;;;;7.68;2.50;;;6.00;99.90;;;;;;4894644;29;20056;-84
2022/10/12 01:02:22;;;;;;;5.47;2.80;;;5.70;99.90;;;;;;4895735;29;20062;-84
2022/10/12 01:04:48;;;;;;;7.90;2.80;;;5.80;99.90;;;;;;4894214;29;20123;-84
2022/10/12 01:07:14;;;;;;;6.28;3.08;;;6.10;99.90;;;;;;4879877;29;20159;-84
2022/10/12 01:09:40;;;;;;;11.52;3.03;;;5.70;99.90;;;;;;4895407;29;20048;-84
2022/10/12 01:12:07;;;;;;;7.25;2.08;;;5.80;99.90;;;;;;4894426;29;20048;-83
2022/10/12 01:14:34;;;;;;;8.77;2.17;;;5.70;99.90;;;;;;4896073;29;20042;-84
2022/10/12 01:17:00;;;;;;;6.13;2.10;;;5.70;99.90;;;;;;4894652;29;20092;-84
2022/10/12 01:19:52;;;;;;;12.40;3.67;;;5.60;99.90;;;;;;4894737;29;20063;-83
2022/10/12 01:22:20;;;;;;;6.65;2.83;;;5.60;99.90;;;;;;4895367;29;20135;-84
2022/10/12 01:25:00;;;;;;;6.40;2.65;;;5.60;99.90;;;;;;4894497;29;20052;-84
2022/10/12 01:27:42;;;;;;;5.93;2.03;;;5.50;99.90;;;;;;4894036;29;20100;-84
2022/10/12 01:30:20;;;;;;;7.28;2.33;;;5.40;99.90;;;;;;4894483;29;20602;-84
2022/10/12 01:33:07;;;;;;;9.27;1.73;;;5.40;99.90;;;;;;4878923;29;20056;-83
2022/10/12 01:35:42;;;;;;;12.32;1.65;;;5.50;99.90;;;;;;4878896;29;20147;-84
2022/10/12 01:38:25;;;;;;;3.60;1.80;;;5.40;99.90;;;;;;4879255;29;20131;-84
2022/10/12 01:40:56;;;;;;;5.55;1.55;;;5.50;99.90;;;;;;4877763;29;20047;-84
2022/10/12 01:43:31;;;;;;;3.67;0.82;;;5.30;99.90;;;;;;4879494;29;20513;-84
2022/10/12 01:46:06;;;;;;;2.25;0.70;;;5.30;99.90;;;;;;4878571;29;20485;-85
2022/10/12 01:48:32;;;;;;;1.02;0.60;;;5.20;99.90;;;;;;4878526;29;20048;-84
2022/10/12 01:51:01;;;;;;;3.72;1.20;;;5.20;99.90;;;;;;4894151;29;20044;-83
2022/10/12 01:53:32;;;;;;;2.85;0.90;;;5.60;99.90;;;;;;4894511;29;20048;-84
2022/10/12 01:56:16;;;;;;;2.88;0.80;;;5.30;99.90;;;;;;4877923;29;20461;-84
2022/10/12 01:58:56;;;;;;;6.78;1.60;;;5.20;99.90;;;;;;4879309;29;20111;-84
2022/10/12 02:01:37;;;;;;;3.47;1.58;;;5.10;99.90;;;;;;4896919;29;20051;-84
2022/10/12 02:04:12;;;;;;;8.18;2.00;;;5.20;99.90;;;;;;4913668;29;20124;-84
2022/10/12 02:06:46;;;;;;;3.95;1.52;;;5.20;99.90;;;;;;4912543;29;20496;-83
2022/10/12 02:09:20;;;;;;;6.70;1.58;;;5.10;99.90;;;;;;4913085;29;20133;-84
2022/10/12 02:11:51;;;;;;;7.20;1.60;;;5.60;99.90;;;;;;4913344;29;20063;-83
2022/10/12 02:14:22;;;;;;;5.07;1.60;;;5.10;99.90;;;;;;4913293;29;20508;-83
2022/10/12 02:16:53;;;;;;;4.10;1.17;;;5.70;99.90;;;;;;4912667;29;20054;-84
2022/10/12 02:19:22;;;;;;;2.58;1.40;;;5.00;99.90;;;;;;4913724;29;20046;-84
2022/10/12 02:21:50;;;;;;;186.77;9.32;;;5.10;99.90;;;;;;4912117;29;20095;-84
2022/10/12 02:24:17;;;;;;;16.73;1.65;;;5.10;99.90;;;;;;4894799;29;20040;-84
2022/10/12 02:26:46;;;;;;;2.33;1.10;;;5.00;99.90;;;;;;4879192;29;20036;-84
2022/10/12 02:29:15;;;;;;;27.67;2.33;;;5.20;99.90;;;;;;4878356;29;20108;-84
2022/10/12 02:31:47;;;;;;;4.80;2.20;;;5.60;99.90;;;;;;4894441;29;20490;-84
2022/10/12 02:34:22;;;;;;;10.75;2.80;;;5.00;99.90;;;;;;4878587;29;20058;-84
2022/10/12 02:36:56;;;;;;;4.28;2.20;;;5.10;99.90;;;;;;4876568;29;20095;-84
2022/10/12 02:39:30;;;;;;;6.40;1.90;;;5.10;99.90;;;;;;4878265;29;20179;-84
2022/10/12 02:42:04;;;;;;;4.20;2.10;;;5.20;99.90;;;;;;4878220;29;20493;-83
2022/10/12 02:44:34;;;;;;;7.45;1.92;;;5.30;99.90;;;;;;4893408;29;20130;-84
2022/10/12 02:47:01;;;;;;;3.35;1.85;;;5.30;99.90;;;;;;4878255;29;20111;-83
2022/10/12 02:49:29;;;;;;;4.85;2.42;;;5.30;99.90;;;;;;4878438;29;20052;-84
2022/10/12 02:51:56;;;;;;;3.33;1.65;;;5.30;99.90;;;;;;4892610;29;20048;-83
2022/10/12 02:54:22;;;;;;;4.38;1.83;;;5.40;99.90;;;;;;4878380;29;20051;-83
2022/10/12 02:56:47;;;;;;;6.82;2.10;;;5.50;99.90;;;;;;4893674;29;20052;-83
2022/10/12 02:59:14;;;;;;;6.88;2.50;;;5.70;99.90;;;;;;4892713;29;20405;-83
2022/10/12 03:01:41;;;;;;;8.20;3.10;;;5.50;99.90;;;;;;4893572;29;20060;-83
2022/10/12 03:04:07;;;;;;;12.68;2.95;;;5.60;99.90;;;;;;4893668;29;20087;-84
2022/10/12 03:06:32;;;;;;;8.05;2.97;;;5.60;99.90;;;;;;4892574;29;20130;-84
2022/10/12 03:08:58;;;;;;;5.63;2.22;;;5.80;99.90;;;;;;4893755;29;20083;-84
2022/10/12 03:11:24;;;;;;;8.02;3.22;;;5.60;99.90;;;;;;4892708;29;20063;-83
2022/10/12 03:13:52;;;;;;;9.00;3.10;;;6.20;99.90;;;;;;4878179;29;20048;-84
2022/10/12 03:16:17;;;;;;;7.20;3.05;;;5.50;99.90;;;;;;4879005;29;20040;-84
2022/10/12 03:18:43;;;;;;;7.43;3.15;;;5.50;99.90;;;;;;4881578;29;20373;-83
2022/10/12 03:21:09;;;;;;;11.73;3.25;;;6.40;99.90;;;;;;4881667;29;20056;-84
2022/10/12 03:23:35;;;;;;;9.38;3.58;;;6.30;99.90;;;;;;4881702;29;20263;-83
2022/10/12 03:26:02;;;;;;;8.30;3.53;;;6.20;99.90;;;;;;4881021;29;20332;-83
2022/10/12 03:28:27;;;;;;;7.00;2.78;;;5.60;99.90;;;;;;4897162;29;20048;-84
2022/10/12 03:30:53;;;;;;;9.35;2.85;;;5.50;99.90;;;;;;4897034;29;20123;-83
2022/10/12 03:33:19;;;;;;;10.43;2.90;;;5.70;99.90;;;;;;4896927;29;20048;-84
2022/10/12 03:35:46;;;;;;;9.48;3.30;;;5.40;99.90;;;;;;4896087;29;20482;-84
2022/10/12 03:38:13;;;;;;;10.15;3.00;;;5.40;99.90;;;;;;4897236;29;20457;-84
2022/10/12 03:40:39;;;;;;;9.55;3.28;;;5.70;99.90;;;;;;4895769;29;20048;-84
2022/10/12 03:43:05;;;;;;;6.88;3.10;;;5.90;99.90;;;;;;4897467;29;20059;-84
2022/10/12 03:45:31;;;;;;;11.02;2.97;;;5.50;99.90;;;;;;4881571;29;20044;-84
2022/10/12 03:47:57;;;;;;;9.63;3.38;;;6.00;99.90;;;;;;4896187;29;20095;-83
2022/10/12 03:50:22;;;;;;;6.72;3.25;;;5.90;99.90;;;;;;4896459;29;20469;-83
2022/10/12 03:52:48;;;;;;;5.32;2.70;;;5.50;99.90;;;;;;4896999;29;20056;-84
2022/10/12 03:55:14;;;;;;;7.63;3.05;;;6.00;99.90;;;;;;4895880;29;20492;-84
2022/10/12 03:57:40;;;;;;;11.48;3.72;;;5.40;99.90;;;;;;4896412;29;20052;-83
2022/10/12 04:00:06;;;;;;;7.82;3.08;;;5.60;99.90;;;;;;4880651;29;20052;-83
2022/10/12 04:02:32;;;;;;;4.28;2.40;;;5.40;99.90;;;;;;4896441;29;20055;-84
2022/10/12 04:04:58;;;;;;;6.53;3.03;;;5.50;99.90;;;;;;4879973;29;20051;-83
2022/10/12 04:07:23;;;;;;;8.13;3.13;;;5.50;99.90;;;;;;4896952;29;20055;-83
2022/10/12 04:09:49;;;;;;;7.50;2.92;;;5.80;99.90;;;;;;4886702;29;20036;-83
2022/10/12 04:12:15;;;;;;;5.50;2.88;;;5.40;99.90;;;;;;4896160;29;20044;-83
2022/10/12 04:14:40;;;;;;;11.10;3.72;;;5.40;99.90;;;;;;4896231;29;20044;-84
2022/10/12 04:17:06;;;;;;;6.88;3.05;;;5.50;99.90;;;;;;4896185;29;20051;-83
2022/10/12 04:19:32;;;;;;;9.68;3.72;;;5.40;99.90;;;;;;4896410;29;20048;-83
2022/10/12 04:21:58;;;;;;;9.02;3.25;;;5.40;99.90;;;;;;4894697;29;20124;-83
2022/10/12 04:24:23;;;;;;;11.73;3.13;;;5.70;99.90;;;;;;4896091;29;20111;-84
2022/10/12 04:26:49;;;;;;;7.35;2.30;;;5.70;99.90;;;;;;4896137;29;20074;-83
2022/10/12 04:29:15;;;;;;;5.45;2.00;;;5.70;99.90;;;;;;4894526;29;20135;-83
2022/10/12 04:31:41;;;;;;;8.57;2.40;;;5.40;99.90;;;;;;4896295;29;20054;-83
2022/10/12 04:34:08;;;;;;;9.10;2.78;;;5.40;99.90;;;;;;4896802;29;20066;-83
2022/10/12 04:36:34;;;;;;;6.72;2.90;;;5.40;99.90;;;;;;4879399;29;20047;-83
2022/10/12 04:39:00;;;;;;;7.78;3.25;;;5.70;99.90;;;;;;4896118;29;20054;-83
2022/10/12 04:41:25;;;;;;;11.52;3.42;;;5.40;99.90;;;;;;4895656;29;20461;-83
2022/10/12 04:43:53;;;;;;;15.60;4.57;;;5.80;99.90;;;;;;4895211;29;20068;-83
2022/10/12 04:46:18;;;;;;;11.93;4.63;;;5.50;99.90;;;;;;4880005;29;20050;-83
2022/10/12 04:48:44;;;;;;;19.77;5.00;;;5.50;99.90;;;;;;4895651;29;20052;-83
2022/10/12 04:51:10;;;;;;;13.38;4.93;;;5.60;99.90;;;;;;4894675;29;20052;-83
2022/10/12 04:53:35;;;;;;;8.90;3.85;;;5.80;99.90;;;;;;4895835;29;20046;-83
2022/10/12 04:56:03;;;;;;;9.15;3.92;;;5.90;99.90;;;;;;4895489;29;20092;-84
2022/10/12 04:58:29;;;;;;;15.05;4.13;;;6.20;99.90;;;;;;4894961;29;20058;-83
2022/10/12 05:00:54;;;;;;;11.75;4.28;;;5.70;99.90;;;;;;4880016;29;20135;-83
2022/10/12 05:03:20;;;;;;;12.77;4.07;;;6.50;99.90;;;;;;4896180;29;20501;-83
2022/10/12 05:05:46;;;;;;;10.60;4.00;;;5.70;99.90;;;;;;4893756;29;20461;-83
2022/10/12 05:08:12;;;;;;;17.35;4.60;;;6.00;99.90;;;;;;4880298;29;20051;-83
2022/10/12 05:10:38;;;;;;;10.45;4.18;;;5.90;99.90;;;;;;4895882;29;20096;-83
2022/10/12 05:13:04;;;;;;;22.15;4.85;;;5.80;99.90;;;;;;4879586;29;20059;-83
2022/10/12 05:15:30;;;;;;;14.80;4.60;;;5.80;99.90;;;;;;4895325;29;20126;-83
2022/10/12 05:17:55;;;;;;;18.80;4.97;;;5.80;99.90;;;;;;4894543;29;20044;-83
2022/10/12 05:20:21;;;;;;;9.90;3.20;;;6.00;99.90;;;;;;4895006;29;20059;-83
2022/10/12 05:22:47;;;;;;;10.75;3.42;;;5.60;99.90;;;;;;4895360;29;20048;-83
2022/10/12 05:25:16;;;;;;;9.80;3.38;;;6.20;99.90;;;;;;4894315;29;20591;-83
2022/10/12 05:27:41;;;;;;;7.63;3.50;;;5.60;99.90;;;;;;4895554;29;20138;-84
2022/10/12 05:30:08;;;;;;;12.80;3.10;;;5.50;99.90;;;;;;4879368;29;20473;-83
2022/10/12 05:32:34;;;;;;;15.75;4.30;;;5.50;99.90;;;;;;4894589;29;20135;-83
2022/10/12 05:35:00;;;;;;;13.07;4.30;;;5.40;99.90;;;;;;4878570;29;20044;-83
2022/10/12 05:37:26;;;;;;;11.48;4.72;;;5.30;99.90;;;;;;4894968;29;20056;-82
2022/10/12 05:39:51;;;;;;;16.77;4.32;;;5.30;99.90;;;;;;4891493;29;20036;-83
2022/10/12 05:42:17;;;;;;;16.52;4.63;;;5.50;99.90;;;;;;4894624;29;20052;-83
2022/10/12 05:44:43;;;;;;;17.00;4.68;;;6.00;99.90;;;;;;4894587;29;20051;-84
2022/10/12 05:47:09;;;;;;;24.63;5.88;;;5.50;99.90;;;;;;4892919;29;20055;-83
2022/10/12 05:49:34;;;;;;;8.20;3.45;;;6.10;99.90;;;;;;4905520;29;20123;-82
2022/10/12 05:52:00;;;;;;;13.82;3.85;;;6.10;99.90;;;;;;4883425;29;20167;-83
2022/10/12 05:54:32;;;;;;;44.78;4.82;;;5.30;99.90;;;;;;4868531;29;20045;-83
2022/10/12 05:56:58;;;;;;;51.97;4.68;;;5.20;99.90;;;;;;4867212;29;20049;-83
2022/10/12 05:59:23;;;;;;;31.15;4.00;;;5.20;99.90;;;;;;4868869;29;20424;-83
2022/10/12 06:01:49;;;;;;;14.45;3.20;;;5.20;99.90;;;;;;4883302;29;20101;-83
2022/10/12 06:04:15;;;;;;;6.82;2.45;;;5.00;99.90;;;;;;4894274;29;20094;-83
2022/10/12 06:06:41;;;;;;;11.93;4.13;;;5.10;99.90;;;;;;4876528;29;20051;-83
2022/10/12 06:09:07;;;;;;;9.90;3.40;;;5.50;99.90;;;;;;4876628;29;20044;-82
2022/10/12 06:11:33;;;;;;;11.13;3.95;;;4.90;99.90;;;;;;4874391;29;20053;-83
2022/10/12 06:14:01;;;;;;;10.73;4.25;;;4.90;99.90;;;;;;4873433;29;20056;-83
2022/10/12 06:16:27;;;;;;;5.40;3.60;;;4.30;99.90;;;;;;4872066;29;20111;-83
2022/10/12 06:18:52;;;;;;;10.00;3.78;;;4.80;99.90;;;;;;4874071;29;20072;-84
2022/10/12 06:21:18;;;;;;;9.18;2.60;;;5.80;99.90;;;;;;4896579;29;20098;-83
2022/10/12 06:23:44;;;;;;;6.20;2.45;;;4.90;99.90;;;;;;4901005;29;20424;-83
2022/10/12 06:26:10;;;;;;;9.20;3.20;;;4.80;99.90;;;;;;4903479;29;20416;-83
2022/10/12 06:28:36;;;;;;;10.18;4.85;;;5.30;99.90;;;;;;4882276;29;20649;-85
2022/10/12 06:31:01;;;;;;;12.40;4.13;;;4.90;99.90;;;;;;4891068;29;20463;-83
2022/10/12 06:33:27;;;;;;;16.48;4.30;;;4.80;99.90;;;;;;4892163;29;20048;-83
2022/10/12 06:35:54;;;;;;;15.63;4.60;;;4.70;99.90;;;;;;4874239;29;20075;-83
2022/10/12 06:38:20;;;;;;;10.40;3.83;;;4.80;99.90;;;;;;4891917;29;20056;-83
2022/10/12 06:40:45;;;;;;;10.80;3.70;;;4.80;99.90;;;;;;4890751;29;20040;-83
2022/10/12 06:43:11;;;;;;;9.55;3.50;;;4.90;99.90;;;;;;4891063;29;20127;-83
2022/10/12 06:45:39;;;;;;;13.75;4.03;;;5.10;99.90;;;;;;4892133;29;20134;-83
2022/10/12 06:48:06;;;;;;;10.32;4.03;;;4.90;99.90;;;;;;4891976;29;20060;-82
2022/10/12 06:50:31;;;;;;;15.93;5.20;;;5.10;99.90;;;;;;4890807;29;20044;-82
2022/10/12 06:52:57;;;;;;;11.43;4.57;;;5.00;99.90;;;;;;4891021;29;20048;-83
2022/10/12 06:55:23;;;;;;;14.82;6.15;;;5.00;99.90;;;;;;4891787;29;20044;-83
2022/10/12 06:57:49;;;;;;;9.10;4.75;;;5.00;99.90;;;;;;4888697;29;20501;-83
2022/10/12 07:00:15;;;;;;;23.15;8.98;;;5.30;99.90;;;;;;4891621;29;20063;-83
2022/10/12 07:02:41;;;;;;;14.93;6.43;;;5.20;99.90;;;;;;4876171;29;20111;-82
2022/10/12 07:05:07;;;;;;;15.98;7.32;;;5.30;99.90;;;;;;4890236;29;20048;-82
2022/10/12 07:07:35;;;;;;;16.15;7.68;;;5.40;99.90;;;;;;4892002;29;20143;-83
2022/10/12 07:10:03;;;;;;;17.20;8.00;;;5.40;99.90;;;;;;4876089;29;20460;-83
2022/10/12 07:12:28;;;;;;;28.35;9.25;;;5.80;99.90;;;;;;4875690;29;20052;-83
2022/10/12 07:14:54;;;;;;;21.98;8.70;;;5.80;99.90;;;;;;4891786;29;20066;-84
2022/10/12 07:17:21;;;;;;;18.98;8.05;;;5.60;99.90;;;;;;4891728;29;20051;-84
2022/10/12 07:19:46;;;;;;;25.35;7.90;;;5.70;99.90;;;;;;4889959;29;20100;-83
2022/10/12 07:22:12;;;;;;;21.40;9.07;;;6.00;99.90;;;;;;4890813;29;20064;-84
2022/10/12 07:24:38;;;;;;;17.17;8.35;;;6.10;99.90;;;;;;4890527;29;20547;-84
2022/10/12 07:27:06;;;;;;;18.27;8.93;;;6.00;99.90;;;;;;4891232;29;20056;-84
2022/10/12 07:29:33;;;;;;;21.00;8.90;;;6.20;99.90;;;;;;4891729;29;20500;-83
2022/10/12 07:31:59;;;;;;;23.05;8.98;;;6.30;99.90;;;;;;4875091;29;20067;-82
2022/10/12 07:34:26;;;;;;;19.30;8.30;;;6.40;99.90;;;;;;4875708;29;20052;-83
2022/10/12 07:36:52;;;;;;;15.93;7.68;;;6.40;99.90;;;;;;4874789;29;20048;-83
2022/10/12 07:39:18;;;;;;;23.90;8.52;;;6.80;99.90;;;;;;4875062;29;20048;-84
2022/10/12 07:41:44;;;;;;;27.38;8.70;;;7.00;99.90;;;;;;4891816;29;20055;-83
2022/10/12 07:44:10;;;;;;;18.45;9.07;;;7.00;99.90;;;;;;4891546;29;20044;-83
2022/10/12 07:46:36;;;;;;;21.38;8.95;;;6.80;99.90;;;;;;4875014;29;20502;-83
2022/10/12 07:49:02;;;;;;;22.92;8.63;;;7.00;99.90;;;;;;4891186;29;20051;-83
2022/10/12 07:51:28;;;;;;;22.80;8.95;;;6.80;99.90;;;;;;4874618;29;20062;-83
2022/10/12 07:53:54;;;;;;;26.52;9.30;;;7.00;99.90;;;;;;4890318;29;20063;-84
2022/10/12 07:56:20;;;;;;;16.95;8.45;;;6.90;99.90;;;;;;4890721;29;20052;-84
2022/10/12 07:58:50;;;;;;;21.48;8.80;;;7.10;99.90;;;;;;4888419;29;20074;-83
2022/10/12 08:01:17;;;;;;;20.85;8.77;;;7.20;99.90;;;;;;4889931;29;20399;-83
2022/10/12 08:03:43;;;;;;;21.38;9.55;;;7.30;99.90;;;;;;4892293;29;20211;-84
2022/10/12 08:06:12;;;;;;;27.40;8.88;;;7.40;99.90;;;;;;4893803;29;20435;-83
2022/10/12 08:08:38;;;;;;;19.05;8.82;;;7.40;99.90;;;;;;4878325;29;20098;-84
2022/10/12 08:11:05;;;;;;;18.42;8.52;;;8.00;99.90;;;;;;4893998;29;20052;-83
2022/10/12 08:13:32;;;;;;;21.70;8.90;;;7.60;99.90;;;;;;4910328;29;20420;-84
2022/10/12 08:15:58;;;;;;;22.15;8.30;;;8.10;99.90;;;;;;4893158;29;20051;-84
2022/10/12 08:18:24;;;;;;;23.63;8.95;;;8.00;99.90;;;;;;4894166;29;20184;-84
2022/10/12 08:20:50;;;;;;;28.90;9.18;;;8.10;99.90;;;;;;4893129;29;20162;-84
2022/10/12 08:23:16;;;;;;;21.85;9.38;;;8.10;99.90;;;;;;4894085;29;20488;-83
2022/10/12 08:25:49;;;;;;;27.52;9.40;;;8.40;99.90;;;;;;4893917;29;20051;-83
2022/10/12 08:28:15;;;;;;;24.23;9.88;;;8.40;99.90;;;;;;4893571;29;20432;-84
2022/10/12 08:30:40;;;;;;;23.02;9.40;;;8.50;99.90;;;;;;4878482;29;20107;-84
2022/10/12 08:33:06;;;;;;;23.30;9.30;;;8.80;99.90;;;;;;4878769;29;20460;-84
2022/10/12 08:35:32;;;;;;;20.00;9.65;;;8.70;99.90;;;;;;4892509;29;20052;-84
2022/10/12 08:37:58;;;;;;;25.20;10.45;;;9.00;99.90;;;;;;4893699;29;20496;-84
2022/10/12 08:40:30;;;;;;;27.45;11.80;;;9.10;99.90;;;;;;4893774;29;20135;-84
2022/10/12 08:43:00;;;;;;;24.20;10.30;;;9.30;99.90;;;;;;4877120;29;20513;-84
2022/10/12 08:45:46;;;;;;;23.15;9.60;;;9.50;99.90;;;;;;4894070;29;20605;-83
2022/10/12 08:48:19;;;;;;;23.20;9.05;;;9.70;99.90;;;;;;4877800;29;20056;-84
2022/10/12 08:50:53;;;;;;;25.52;10.63;;;9.90;99.90;;;;;;4892499;29;20111;-83
2022/10/12 08:53:27;;;;;;;23.77;8.73;;;9.90;99.90;;;;;;4893320;29;20048;-84
2022/10/12 08:55:52;;;;;;;21.83;7.93;;;10.00;99.90;;;;;;4869114;29;20056;-83
2022/10/12 08:58:22;;;;;;;22.85;7.20;;;10.10;99.90;;;;;;4883562;29;20041;-84
2022/10/12 09:00:55;;;;;;;20.65;7.13;;;10.20;99.90;;;;;;4888502;29;20056;-84
2022/10/12 09:03:27;;;;;;;;;;;10.30;99.90;;;;;;4878475;29;20196;-83
2022/10/12 09:06:07;;;;;;;24.17;7.45;;;10.30;99.90;;;;;;4893185;29;19931;-83
2022/10/12 09:08:34;;;;;;;21.48;7.03;;;10.30;99.90;;;;;;4893481;29;20486;-84
2022/10/12 09:11:43;;;;;;;21.88;6.63;;;10.30;99.90;;;;;;4894847;29;20048;-85
2022/10/12 09:14:18;;;;;;;23.80;7.90;;;10.40;99.90;;;;;;4879671;29;20515;-85
2022/10/12 09:16:47;;;;;;;19.90;6.80;;;10.30;99.90;;;;;;4880062;29;20134;-84
2022/10/12 09:19:28;;;;;;;19.58;6.53;;;10.40;99.90;;;;;;4894775;29;20044;-85
2022/10/12 09:21:55;;;;;;;15.63;6.10;;;10.40;99.90;;;;;;4894198;29;20148;-84
2022/10/12 09:24:27;;;;;;;17.02;5.80;;;10.40;99.90;;;;;;4895074;29;20048;-85
2022/10/12 09:27:06;;;;;;;19.70;6.28;;;10.30;99.90;;;;;;4894828;29;20405;-85
2022/10/12 09:29:35;;;;;;;25.17;5.63;;;10.30;99.90;;;;;;4895528;29;20106;-85
2022/10/12 09:32:36;;;;;;;17.70;5.82;;;10.40;99.90;;;;;;4894904;29;20090;-85
2022/10/12 09:35:12;;;;;;;18.02;5.28;;;10.50;99.90;;;;;;4879027;29;20050;-85
2022/10/12 09:37:39;;;;;;;21.88;5.63;;;10.60;99.90;;;;;;4895146;29;20059;-84
2022/10/12 09:40:19;;;;;;;17.23;5.28;;;10.80;99.90;;;;;;4894975;29;20064;-85
2022/10/12 09:42:46;;;;;;;14.52;4.88;;;10.90;99.90;;;;;;4879452;29;20150;-84
2022/10/12 09:45:21;;;;;;;15.48;4.57;;;11.10;99.90;;;;;;4878831;29;20083;-85
2022/10/12 09:48:11;;;;;;;16.58;5.13;;;11.10;99.90;;;;;;4895114;29;20059;-85
2022/10/12 09:50:42;;;;;;;16.00;5.55;;;11.30;99.90;;;;;;4891475;29;20131;-84
2022/10/12 09:53:19;;;;;;;13.95;4.35;;;11.40;99.90;;;;;;4891160;29;20060;-85
2022/10/12 09:56:11;;;;;;;18.10;5.10;;;11.40;99.90;;;;;;4875858;29;20048;-84
2022/10/12 09:58:52;;;;;;;18.33;4.30;;;11.50;99.90;;;;;;4876758;29;20071;-87
2022/10/12 10:01:20;;;;;;;22.52;4.15;;;11.50;99.90;;;;;;4896631;29;20048;-83
2022/10/12 10:03:50;;;;;;;13.55;3.95;;;11.60;99.90;;;;;;4879083;29;20060;-83
2022/10/12 10:06:22;;;;;;;18.67;4.10;;;11.60;99.90;;;;;;4907206;29;20066;-84
2022/10/12 10:08:48;;;;;;;14.65;4.18;;;11.70;99.90;;;;;;4892773;29;20040;-84
2022/10/12 10:11:30;;;;;;;14.57;4.03;;;11.70;99.90;;;;;;4892752;29;20059;-84
2022/10/12 10:14:00;;;;;;;17.95;3.88;;;11.80;99.90;;;;;;4876369;29;20063;-84
2022/10/12 10:16:28;;;;;;;11.98;3.08;;;11.90;99.90;;;;;;4891925;29;20048;-84
2022/10/12 10:19:03;;;;;;;14.43;3.78;;;12.00;99.90;;;;;;4892345;29;20610;-84
2022/10/12 10:21:32;;;;;;;18.13;3.42;;;12.00;99.90;;;;;;4891410;29;20519;-84
2022/10/12 10:24:05;;;;;;;17.75;4.03;;;12.10;99.90;;;;;;4890581;29;20544;-84
2022/10/12 10:26:52;;;;;;;12.45;3.30;;;12.10;99.90;;;;;;4891828;29;20495;-84
2022/10/12 10:29:20;;;;;;;15.15;3.78;;;12.20;99.90;;;;;;4890777;29;20563;-84
2022/10/12 10:32:25;;;;;;;16.05;2.90;;;12.20;99.90;;;;;;4875766;29;20047;-84
2022/10/12 10:35:10;;;;;;;15.45;3.35;;;12.30;99.90;;;;;;4893326;29;20047;-84
2022/10/12 10:37:55;;;;;;;16.08;3.60;;;12.30;99.90;;;;;;4894340;29;20195;-84
2022/10/12 10:40:40;;;;;;;17.42;3.50;;;12.40;99.90;;;;;;4908429;29;20529;-83
2022/10/12 10:43:27;;;;;;;18.80;3.50;;;12.40;99.90;;;;;;4906185;29;20518;-84
2022/10/12 10:46:12;;;;;;;16.95;3.30;;;12.40;99.90;;;;;;4893873;29;20099;-84
2022/10/12 10:48:52;;;;;;;12.48;2.83;;;12.40;99.90;;;;;;4891229;29;20224;-84
2022/10/12 10:51:18;;;;;;;13.57;2.45;;;12.50;99.90;;;;;;4891272;29;20126;-84
2022/10/12 10:53:47;;;;;;;11.57;2.60;;;12.60;99.90;;;;;;4890949;29;20090;-84
2022/10/12 10:56:19;;;;;;;12.40;2.80;;;12.60;99.90;;;;;;4890853;29;20063;-84
2022/10/12 10:59:00;;;;;;;12.55;2.97;;;12.70;99.90;;;;;;4891069;29;20072;-84
2022/10/12 11:01:44;;;;;;;15.70;2.78;;;12.80;99.90;;;;;;4891022;29;20091;-84
2022/10/12 11:04:21;;;;;;;16.88;2.65;;;12.80;99.90;;;;;;4875115;29;20103;-85
2022/10/12 11:06:52;;;;;;;18.38;2.65;;;12.90;99.90;;;;;;4889990;29;20052;-84
2022/10/12 11:09:29;;;;;;;17.15;3.17;;;13.00;99.90;;;;;;4876607;29;20107;-84
2022/10/12 11:12:02;;;;;;;12.02;2.50;;;13.00;99.90;;;;;;4891143;29;20088;-84
2022/10/12 11:14:38;;;;;;;15.55;2.75;;;13.00;99.90;;;;;;4891902;29;20548;-84
2022/10/12 11:17:09;;;;;;;13.95;2.45;;;13.10;99.90;;;;;;4891098;29;20060;-84
2022/10/12 11:19:46;;;;;;;11.25;2.13;;;13.10;99.90;;;;;;4877015;29;20079;-84
2022/10/12 11:22:24;;;;;;;13.80;2.53;;;13.10;99.90;;;;;;4876047;29;20075;-83
2022/10/12 11:24:56;;;;;;;8.88;2.40;;;13.10;99.90;;;;;;4873284;29;20055;-85
2022/10/12 11:27:31;;;;;;;11.70;2.22;;;13.10;99.90;;;;;;4891882;29;20055;-84
2022/10/12 11:30:00;;;;;;;15.38;2.40;;;13.10;99.90;;;;;;4875915;29;20139;-83
2022/10/12 11:32:35;;;;;;;8.68;2.35;;;13.10;99.90;;;;;;4890665;29;20465;-85
2022/10/12 11:35:04;;;;;;;12.25;2.03;;;13.10;99.90;;;;;;4875149;29;20055;-84
2022/10/12 11:37:41;;;;;;;16.90;2.17;;;13.10;99.90;;;;;;4876970;29;20119;-84
2022/10/12 11:40:16;;;;;;;13.55;2.40;;;13.20;99.90;;;;;;4878747;29;20135;-85
2022/10/12 11:42:41;;;;;;;10.95;1.85;;;13.30;99.90;;;;;;4894671;29;20157;-84
2022/10/12 11:45:21;;;;;;;12.52;2.45;;;13.30;99.90;;;;;;4893478;29;20056;-84
2022/10/12 11:47:51;;;;;;;12.10;2.60;;;13.30;99.90;;;;;;4894026;29;20115;-85
2022/10/12 11:50:35;;;;;;;9.30;1.80;;;13.40;99.90;;;;;;4878469;29;20099;-85
2022/10/12 11:53:05;;;;;;;12.15;2.50;;;13.30;99.90;;;;;;4878447;29;20479;-84
2022/10/12 11:55:51;;;;;;;11.18;1.98;;;13.40;99.90;;;;;;4894619;29;20094;-84
2022/10/12 11:58:26;;;;;;;12.55;2.20;;;13.50;99.90;;;;;;4878582;29;20060;-84
2022/10/12 12:01:07;;;;;;;11.52;2.40;;;13.50;99.90;;;;;;4892997;29;20048;-83
2022/10/12 12:03:42;;;;;;;8.65;2.28;;;13.50;99.90;;;;;;4894322;29;20107;-84
2022/10/12 12:06:28;;;;;;;12.40;2.13;;;13.50;99.90;;;;;;4895588;29;20051;-84
2022/10/12 12:08:55;;;;;;;15.75;2.35;;;13.50;99.90;;;;;;4896602;29;20078;-84
2022/10/12 12:11:25;;;;;;;9.52;2.25;;;13.50;99.90;;;;;;4896477;29;20044;-83
2022/10/12 12:14:20;;;;;;;12.13;2.45;;;13.60;99.90;;;;;;4879979;29;20075;-84
2022/10/12 12:16:47;;;;;;;10.23;2.55;;;13.60;99.90;;;;;;4895917;29;20583;-84
2022/10/12 12:19:36;;;;;;;11.07;2.00;;;13.60;99.90;;;;;;4881655;29;20048;-84
2022/10/12 12:22:11;;;;;;;14.40;1.70;;;13.60;99.90;;;;;;4878868;29;20074;-83
2022/10/12 12:24:38;;;;;;;13.20;1.92;;;13.60;99.90;;;;;;4897009;29;20492;-83
2022/10/12 12:27:22;;;;;;;14.93;2.38;;;13.70;99.90;;;;;;4880461;29;20094;-86
2022/10/12 12:29:51;;;;;;;18.60;2.20;;;13.70;99.90;;;;;;4896150;29;20052;-85
2022/10/12 12:32:17;;;;;;;8.82;1.98;;;13.70;99.90;;;;;;4881436;29;20149;-85
2022/10/12 12:34:58;;;;;;;14.75;2.10;;;13.70;99.90;;;;;;4879720;29;20096;-84
2022/10/12 12:37:30;;;;;;;7.88;1.50;;;13.70;99.90;;;;;;4895770;29;20052;-85
2022/10/12 12:39:58;;;;;;;12.73;2.33;;;13.70;99.90;;;;;;4892874;29;20480;-85
2022/10/12 12:42:26;;;;;;;11.73;2.25;;;13.60;99.90;;;;;;4892762;29;20079;-85
2022/10/12 12:44:52;;;;;;;12.57;1.83;;;13.70;99.90;;;;;;4894854;29;20450;-84
2022/10/12 12:47:35;;;;;;;8.02;1.85;;;13.70;99.90;;;;;;4884978;29;20117;-85
2022/10/12 12:50:21;;;;;;;12.00;2.88;;;13.70;99.90;;;;;;4881328;29;20044;-85
2022/10/12 12:52:47;;;;;;;10.40;2.10;;;13.70;99.90;;;;;;4894165;29;20463;-85
2022/10/12 12:55:13;;;;;;;9.13;3.47;;;13.70;99.90;;;;;;4884312;29;20045;-85
2022/10/12 12:57:57;;;;;;;12.18;1.98;;;13.60;99.90;;;;;;4869480;29;20509;-85
2022/10/12 13:00:26;;;;;;;6.68;1.40;;;13.60;99.90;;;;;;4891746;29;20052;-87
2022/10/12 13:03:15;;;;;;;11.05;1.80;;;13.60;99.90;;;;;;4883810;29;20184;-85